createdAt,value
2019-06-27T00:01:22.327Z,26.66
2019-06-27T00:03:53.024Z,26.65
2019-06-27T00:06:23.741Z,26.45
2019-06-27T00:08:54.447Z,26.55
2019-06-27T00:11:25.177Z,26.29
2019-06-27T00:13:56.019Z,26.26
2019-06-27T00:16:26.757Z,26.30
2019-06-27T00:18:57.601Z,26.49
2019-06-27T00:21:28.331Z,26.47
2019-06-27T00:23:59.111Z,26.34
2019-06-27T00:26:29.918Z,26.17
2019-06-27T00:29:00.643Z,26.22
2019-06-27T00:31:31.627Z,26.17
2019-06-27T00:34:02.383Z,26.15
2019-06-27T00:36:33.140Z,26.07
2019-06-27T00:39:04.990Z,26.27
2019-06-27T00:41:36.069Z,26.23
2019-06-27T00:44:06.837Z,25.82
2019-06-27T00:46:39.990Z,25.47
2019-06-27T00:49:10.744Z,25.38
2019-06-27T00:51:45.038Z,25.42
2019-06-27T00:54:13.990Z,24.92
2019-06-27T00:56:44.728Z,24.59
2019-06-27T00:59:15.408Z,24.56
2019-06-27T01:01:46.216Z,24.45
2019-06-27T01:04:17.049Z,24.40
2019-06-27T01:06:48.948Z,24.19
2019-06-27T01:09:20.109Z,23.76
2019-06-27T01:11:50.850Z,23.31
2019-06-27T01:14:21.552Z,23.32
2019-06-27T01:16:52.278Z,23.53
2019-06-27T01:19:22.993Z,23.98
2019-06-27T01:21:53.868Z,24.48
2019-06-27T01:24:24.591Z,24.97
2019-06-27T01:26:55.383Z,24.94
2019-06-27T01:29:26.133Z,24.96
2019-06-27T01:31:56.845Z,25.06
2019-06-27T01:34:27.607Z,24.91
2019-06-27T01:36:58.347Z,24.90
2019-06-27T01:39:29.328Z,24.98
2019-06-27T01:42:00.213Z,24.82
2019-06-27T01:44:56.977Z,25.00
2019-06-27T01:47:27.753Z,24.31
2019-06-27T01:49:58.485Z,24.48
2019-06-27T01:52:29.598Z,24.76
2019-06-27T01:55:00.315Z,24.96
2019-06-27T01:57:45.650Z,24.86
2019-06-27T02:00:03.905Z,24.88
2019-06-27T02:02:34.685Z,24.93
2019-06-27T02:05:05.921Z,24.97
2019-06-27T02:07:36.646Z,25.04
2019-06-27T02:10:08.393Z,24.89
2019-06-27T02:12:39.174Z,24.70
2019-06-27T02:15:10.144Z,24.83
2019-06-27T02:17:41.161Z,24.97
2019-06-27T02:20:12.380Z,24.94
2019-06-27T02:22:43.107Z,24.59
2019-06-27T02:25:14.164Z,24.60
2019-06-27T02:27:44.965Z,24.61
2019-06-27T02:30:17.599Z,24.90
2019-06-27T02:32:48.309Z,24.80
2019-06-27T02:35:19.141Z,25.13
2019-06-27T02:37:49.854Z,25.09
2019-06-27T02:40:22.041Z,24.89
2019-06-27T02:42:53.361Z,24.82
2019-06-27T02:45:25.327Z,24.87
2019-06-27T02:47:56.382Z,24.57
2019-06-27T02:50:27.466Z,24.31
2019-06-27T02:52:58.196Z,24.52
2019-06-27T02:55:29.177Z,23.73
2019-06-27T02:58:00.331Z,23.95
2019-06-27T03:00:31.191Z,23.84
2019-06-27T03:03:02.076Z,23.58
2019-06-27T03:05:32.813Z,23.75
2019-06-27T03:08:03.785Z,23.90
2019-06-27T03:10:34.637Z,23.73
2019-06-27T03:13:05.353Z,23.42
2019-06-27T03:15:36.245Z,23.53
2019-06-27T03:18:06.978Z,23.67
2019-06-27T03:20:37.713Z,23.46
2019-06-27T03:23:08.444Z,23.02
2019-06-27T03:25:39.197Z,23.20
2019-06-27T03:28:10.094Z,23.05
2019-06-27T03:30:41.449Z,23.22
2019-06-27T03:33:12.359Z,23.20
2019-06-27T03:35:43.112Z,23.70
2019-06-27T03:38:15.022Z,23.73
2019-06-27T03:40:46.041Z,23.85
2019-06-27T03:43:16.900Z,24.09
2019-06-27T03:45:48.705Z,24.24
2019-06-27T03:48:19.469Z,24.31
2019-06-27T03:50:50.163Z,24.39
2019-06-27T03:53:20.919Z,23.74
2019-06-27T03:55:51.624Z,24.25
2019-06-27T03:58:22.515Z,24.21
2019-06-27T04:00:53.396Z,24.67
2019-06-27T04:03:24.404Z,24.52
2019-06-27T04:05:55.220Z,24.83
2019-06-27T04:08:25.959Z,24.86
2019-06-27T04:10:57.066Z,25.08
2019-06-27T04:13:27.804Z,25.20
2019-06-27T04:15:58.513Z,25.04
2019-06-27T04:18:29.668Z,25.05
2019-06-27T04:21:00.387Z,25.22
2019-06-27T04:23:31.125Z,25.50
2019-06-27T04:26:02.060Z,25.71
2019-06-27T04:28:32.809Z,25.34
2019-06-27T04:31:03.590Z,25.91
2019-06-27T04:33:34.333Z,26.44
2019-06-27T04:36:05.041Z,27.22
2019-06-27T04:38:36.059Z,27.28
2019-06-27T04:41:06.935Z,27.59
2019-06-27T04:43:37.665Z,28.21
2019-06-27T04:46:08.697Z,28.80
2019-06-27T04:48:39.749Z,29.14
2019-06-27T04:51:10.438Z,29.41
2019-06-27T04:53:41.183Z,29.98
2019-06-27T04:56:11.902Z,29.95
2019-06-27T04:58:42.699Z,29.65
2019-06-27T05:01:13.759Z,29.20
2019-06-27T05:03:44.568Z,29.30
2019-06-27T05:06:15.293Z,29.81
2019-06-27T05:08:46.431Z,30.59
2019-06-27T05:11:17.350Z,30.71
2019-06-27T05:13:48.182Z,30.66
2019-06-27T05:16:18.869Z,29.74
2019-06-27T05:18:49.755Z,29.16
2019-06-27T05:21:20.453Z,28.73
2019-06-27T05:23:51.424Z,28.89
2019-06-27T05:26:22.419Z,29.06
2019-06-27T05:28:54.182Z,28.85
2019-06-27T05:31:24.946Z,28.67
2019-06-27T05:33:55.905Z,29.62
2019-06-27T05:36:26.643Z,30.47
2019-06-27T05:38:57.452Z,31.29
2019-06-27T05:41:28.288Z,31.86
2019-06-27T05:43:59.008Z,32.53
2019-06-27T05:46:30.059Z,32.66
2019-06-27T05:49:00.809Z,33.34
2019-06-27T05:51:31.511Z,34.10
2019-06-27T05:54:02.475Z,34.50
2019-06-27T05:56:33.176Z,34.23
2019-06-27T05:59:03.937Z,34.91
2019-06-27T06:01:34.999Z,34.22
2019-06-27T06:04:06.013Z,33.43
2019-06-27T06:06:36.752Z,33.13
2019-06-27T06:09:07.622Z,32.41
2019-06-27T06:11:38.474Z,31.65
2019-06-27T06:14:09.184Z,31.99
2019-06-27T06:16:39.990Z,30.98
2019-06-27T06:19:10.789Z,31.29
2019-06-27T06:21:41.522Z,30.84
2019-06-27T06:24:12.207Z,30.83
2019-06-27T06:26:42.928Z,31.31
2019-06-27T06:29:13.841Z,31.13
2019-06-27T06:31:44.612Z,31.09
2019-06-27T06:34:15.451Z,31.24
2019-06-27T06:36:46.349Z,31.02
2019-06-27T06:39:17.059Z,30.81
2019-06-27T06:41:47.895Z,30.83
2019-06-27T06:44:18.584Z,30.21
2019-06-27T06:46:49.333Z,30.31
2019-06-27T06:49:20.546Z,29.62
2019-06-27T06:51:51.415Z,28.53
2019-06-27T06:54:22.101Z,28.36
2019-06-27T06:56:53.027Z,28.03
2019-06-27T06:59:24.723Z,27.54
2019-06-27T07:01:55.476Z,27.45
2019-06-27T07:04:26.209Z,27.29
2019-06-27T07:06:56.980Z,27.12
2019-06-27T07:09:27.850Z,26.85
2019-06-27T07:11:58.680Z,26.50
2019-06-27T07:14:29.434Z,26.62
2019-06-27T07:17:00.258Z,26.63
2019-06-27T07:19:30.968Z,26.54
2019-06-27T07:22:01.772Z,26.75
2019-06-27T07:24:32.490Z,26.55
2019-06-27T07:27:03.308Z,26.45
2019-06-27T07:29:34.238Z,26.43
2019-06-27T07:32:04.994Z,26.17
2019-06-27T07:34:35.798Z,25.99
2019-06-27T07:37:06.572Z,25.95
2019-06-27T07:39:37.468Z,26.10
2019-06-27T07:42:08.218Z,26.16
2019-06-27T07:44:38.938Z,26.23
2019-06-27T07:47:09.722Z,26.28
2019-06-27T07:49:40.833Z,26.24
2019-06-27T07:52:11.837Z,26.44
2019-06-27T07:54:42.605Z,26.40
2019-06-27T07:57:13.438Z,26.60
2019-06-27T07:59:44.340Z,26.61
2019-06-27T08:02:16.358Z,26.42
2019-06-27T08:04:47.369Z,26.74
2019-06-27T08:07:21.193Z,26.62
2019-06-27T08:09:51.135Z,26.64
2019-06-27T08:12:21.866Z,26.59
2019-06-27T08:14:52.580Z,26.89
2019-06-27T08:17:23.708Z,26.94
2019-06-27T08:19:55.006Z,27.21
2019-06-27T08:22:26.011Z,27.35
2019-06-27T08:24:56.751Z,27.61
2019-06-27T08:27:28.591Z,27.68
2019-06-27T08:29:59.635Z,27.80
2019-06-27T08:32:30.887Z,27.30
2019-06-27T08:35:01.872Z,27.23
2019-06-27T08:37:32.645Z,27.27
2019-06-27T08:40:03.472Z,27.46
2019-06-27T08:42:34.529Z,27.53
2019-06-27T08:45:06.768Z,27.79
2019-06-27T08:47:37.948Z,27.68
2019-06-27T08:50:09.360Z,27.54
2019-06-27T08:52:40.123Z,27.69
2019-06-27T08:55:11.265Z,27.68
2019-06-27T08:57:41.940Z,27.69
2019-06-27T09:00:13.175Z,27.81
2019-06-27T09:02:43.837Z,28.09
2019-06-27T09:05:14.998Z,28.06
2019-06-27T09:07:45.695Z,28.16
2019-06-27T09:10:16.903Z,28.59
2019-06-27T09:12:47.632Z,28.37
2019-06-27T09:15:19.591Z,28.46
2019-06-27T09:17:50.338Z,28.51
2019-06-27T09:20:21.920Z,28.62
2019-06-27T09:22:52.632Z,28.63
2019-06-27T09:25:23.481Z,28.66
2019-06-27T09:27:54.418Z,28.66
2019-06-27T09:30:25.660Z,28.74
2019-06-27T09:32:56.419Z,29.08
2019-06-27T09:35:27.228Z,29.36
2019-06-27T09:37:57.995Z,29.76
2019-06-27T09:40:28.746Z,29.65
2019-06-27T09:42:59.553Z,29.57
2019-06-27T09:45:30.287Z,29.22
2019-06-27T09:48:01.018Z,29.06
2019-06-27T09:50:31.716Z,29.26
2019-06-27T09:53:03.623Z,29.39
2019-06-27T09:55:34.549Z,29.42
2019-06-27T09:58:05.338Z,29.62
2019-06-27T10:00:36.086Z,29.77
2019-06-27T10:03:07.064Z,29.99
2019-06-27T10:05:37.844Z,29.71
2019-06-27T10:08:08.593Z,29.85
2019-06-27T10:10:39.476Z,30.05
2019-06-27T10:13:10.201Z,29.60
2019-06-27T10:15:40.941Z,29.76
2019-06-27T10:18:11.673Z,30.38
2019-06-27T10:20:42.447Z,30.11
2019-06-27T10:23:13.516Z,30.29
2019-06-27T10:25:44.233Z,30.70
2019-06-27T10:28:14.970Z,30.79
2019-06-27T10:30:49.139Z,30.52
2019-06-27T10:33:18.499Z,31.04
2019-06-27T10:35:49.355Z,30.85
2019-06-27T10:38:20.079Z,30.67
2019-06-27T10:40:50.783Z,31.26
2019-06-27T10:43:21.650Z,31.41
2019-06-27T10:45:52.430Z,31.41
2019-06-27T10:48:23.288Z,31.21
2019-06-27T10:50:54.868Z,30.75
2019-06-27T10:53:26.712Z,30.83
2019-06-27T10:55:57.786Z,30.74
2019-06-27T10:58:28.523Z,31.00
2019-06-27T11:00:59.211Z,30.82
2019-06-27T11:03:30.210Z,30.64
2019-06-27T11:06:00.912Z,30.48
2019-06-27T11:08:31.669Z,30.79
2019-06-27T11:11:02.426Z,31.09
2019-06-27T11:13:33.191Z,31.52
2019-06-27T11:16:04.029Z,31.72
2019-06-27T11:18:34.748Z,31.43
2019-06-27T11:21:05.603Z,31.46
2019-06-27T11:23:36.302Z,31.77
2019-06-27T11:26:09.407Z,31.87
2019-06-27T11:28:39.510Z,31.78
2019-06-27T11:31:10.358Z,32.35
2019-06-27T11:33:41.561Z,32.04
2019-06-27T11:36:12.560Z,31.61
2019-06-27T11:38:43.272Z,31.66
2019-06-27T11:41:14.063Z,31.78
2019-06-27T11:43:44.808Z,31.87
2019-06-27T11:46:15.723Z,31.92
2019-06-27T11:48:46.468Z,32.11
2019-06-27T11:51:17.148Z,31.73
2019-06-27T11:53:47.867Z,32.20
2019-06-27T11:56:18.594Z,32.14
2019-06-27T11:58:49.293Z,31.90
2019-06-27T12:01:20.150Z,31.73
2019-06-27T12:03:50.873Z,32.18
2019-06-27T12:06:21.728Z,31.68
2019-06-27T12:08:52.469Z,32.02
2019-06-27T12:11:23.164Z,32.02
2019-06-27T12:13:54.843Z,32.05
2019-06-27T12:16:25.560Z,32.23
2019-06-27T12:18:56.299Z,31.80
2019-06-27T12:21:27.024Z,31.75
2019-06-27T12:23:58.143Z,31.74
2019-06-27T12:26:28.914Z,31.78
2019-06-27T12:28:59.615Z,31.66
2019-06-27T12:31:30.454Z,32.02
2019-06-27T12:34:06.877Z,32.01
2019-06-27T12:36:33.802Z,32.43
2019-06-27T12:39:04.548Z,32.35
2019-06-27T12:41:36.431Z,32.04
2019-06-27T12:44:07.410Z,32.22
2019-06-27T12:46:38.153Z,32.33
2019-06-27T12:49:08.880Z,32.41
2019-06-27T12:51:39.813Z,32.47
2019-06-27T12:54:10.537Z,32.96
2019-06-27T12:56:41.378Z,32.04
2019-06-27T12:59:12.060Z,32.38
2019-06-27T13:01:42.777Z,32.46
2019-06-27T13:04:23.480Z,32.31
2019-06-27T13:06:46.284Z,32.32
2019-06-27T13:09:17.165Z,32.47
2019-06-27T13:11:47.871Z,32.63
2019-06-27T13:14:18.589Z,31.96
2019-06-27T13:16:49.435Z,32.23
2019-06-27T13:19:20.101Z,32.23
2019-06-27T13:21:51.033Z,32.38
2019-06-27T13:24:21.735Z,33.10
2019-06-27T13:26:52.455Z,32.98
2019-06-27T13:29:26.737Z,32.59
2019-06-27T13:31:55.766Z,32.43
2019-06-27T13:34:39.985Z,32.53
2019-06-27T13:36:59.103Z,32.51
2019-06-27T13:39:29.788Z,32.81
2019-06-27T13:42:00.533Z,33.06
2019-06-27T13:44:31.551Z,32.71
2019-06-27T13:47:02.278Z,32.75
2019-06-27T13:49:32.975Z,32.19
2019-06-27T13:52:03.797Z,32.41
2019-06-27T13:54:34.531Z,32.16
2019-06-27T13:57:05.699Z,32.24
2019-06-27T13:59:37.465Z,32.16
2019-06-27T14:02:08.112Z,32.55
2019-06-27T14:04:39.042Z,32.51
2019-06-27T14:07:09.811Z,32.55
2019-06-27T14:09:52.224Z,32.28
2019-06-27T14:12:12.903Z,32.50
2019-06-27T14:14:58.790Z,32.07
2019-06-27T14:17:16.109Z,31.75
2019-06-27T14:19:50.679Z,31.82
2019-06-27T14:22:32.746Z,32.12
2019-06-27T14:24:52.279Z,32.38
2019-06-27T14:27:23.052Z,32.59
2019-06-27T14:29:56.583Z,32.13
2019-06-27T14:32:26.802Z,32.26
2019-06-27T14:35:14.034Z,31.84
2019-06-27T14:37:30.113Z,32.01
2019-06-27T14:40:00.821Z,31.98
2019-06-27T14:42:31.561Z,32.37
2019-06-27T14:45:02.423Z,32.53
2019-06-27T14:47:33.125Z,32.59
2019-06-27T14:50:04.381Z,32.80
2019-06-27T14:52:35.275Z,32.52
2019-06-27T14:55:07.229Z,32.45
2019-06-27T14:57:38.072Z,32.22
2019-06-27T15:00:09.015Z,32.24
2019-06-27T15:02:39.853Z,32.58
2019-06-27T15:05:10.572Z,32.55
2019-06-27T15:07:41.277Z,32.43
2019-06-27T15:10:12.709Z,32.20
2019-06-27T15:12:56.342Z,32.35
2019-06-27T15:15:17.335Z,32.19
2019-06-27T15:17:48.041Z,32.28
2019-06-27T15:20:19.060Z,32.22
2019-06-27T15:22:49.762Z,32.39
2019-06-27T15:25:20.550Z,32.31
2019-06-27T15:27:51.769Z,32.22
2019-06-27T15:30:22.598Z,32.01
2019-06-27T15:32:54.286Z,32.09
2019-06-27T15:35:25.099Z,31.81
2019-06-27T15:37:55.849Z,31.72
2019-06-27T15:40:26.591Z,31.49
2019-06-27T15:42:57.785Z,31.40
2019-06-27T15:45:28.673Z,31.17
2019-06-27T15:47:59.369Z,31.08
2019-06-27T15:50:30.196Z,31.07
2019-06-27T15:53:00.921Z,31.19
2019-06-27T15:55:31.628Z,31.07
2019-06-27T15:58:02.834Z,31.20
2019-06-27T16:00:39.159Z,31.18
2019-06-27T16:03:08.445Z,31.25
2019-06-27T16:05:39.257Z,31.23
2019-06-27T16:08:10.188Z,31.44
2019-06-27T16:10:40.932Z,31.70
2019-06-27T16:13:11.757Z,31.97
2019-06-27T16:15:42.436Z,31.94
2019-06-27T16:18:13.274Z,31.93
2019-06-27T16:20:44.051Z,31.93
2019-06-27T16:23:15.852Z,31.83
2019-06-27T16:25:47.626Z,32.09
2019-06-27T16:28:18.373Z,32.03
2019-06-27T16:30:49.132Z,32.28
2019-06-27T16:33:19.937Z,32.08
2019-06-27T16:35:50.664Z,32.04
2019-06-27T16:38:22.429Z,31.87
2019-06-27T16:40:53.178Z,31.94
2019-06-27T16:43:23.966Z,32.29
2019-06-27T16:45:54.802Z,32.38
2019-06-27T16:48:25.550Z,32.91
2019-06-27T16:50:56.350Z,33.17
2019-06-27T16:53:28.243Z,33.40
2019-06-27T16:55:58.956Z,33.60
2019-06-27T16:58:29.814Z,33.74
2019-06-27T17:01:00.929Z,33.94
2019-06-27T17:03:32.675Z,33.51
2019-06-27T17:06:03.485Z,34.35
2019-06-27T17:08:34.384Z,34.05
2019-06-27T17:11:05.084Z,34.54
2019-06-27T17:13:35.881Z,35.14
2019-06-27T17:16:06.631Z,35.22
2019-06-27T17:18:37.393Z,34.97
2019-06-27T17:21:08.350Z,33.68
2019-06-27T17:23:39.226Z,32.61
2019-06-27T17:26:11.698Z,32.81
2019-06-27T17:28:42.348Z,32.59
2019-06-27T17:31:13.230Z,32.02
2019-06-27T17:33:44.166Z,31.71
2019-06-27T17:36:14.900Z,31.60
2019-06-27T17:38:45.948Z,31.35
2019-06-27T17:41:16.697Z,31.19
2019-06-27T17:43:47.403Z,31.08
2019-06-27T17:46:18.221Z,30.56
2019-06-27T17:48:48.901Z,29.77
2019-06-27T17:51:19.594Z,29.63
2019-06-27T17:53:50.262Z,29.40
2019-06-27T17:56:20.976Z,29.06
2019-06-27T17:58:51.673Z,28.77
2019-06-27T18:01:22.563Z,28.69
2019-06-27T18:03:53.633Z,28.49
2019-06-27T18:06:24.590Z,28.62
2019-06-27T18:08:55.355Z,28.30
2019-06-27T18:11:26.072Z,28.27
2019-06-27T18:13:56.764Z,28.22
2019-06-27T18:16:27.499Z,28.16
2019-06-27T18:19:00.757Z,28.02
2019-06-27T18:21:31.063Z,27.96
2019-06-27T18:24:01.877Z,27.69
2019-06-27T18:26:32.914Z,27.76
2019-06-27T18:29:03.673Z,27.68
2019-06-27T18:31:34.487Z,27.53
2019-06-27T18:34:05.282Z,27.54
2019-06-27T18:36:36.052Z,27.56
2019-06-27T18:39:07.095Z,27.56
2019-06-27T18:41:37.938Z,27.29
2019-06-27T18:44:08.627Z,27.11
2019-06-27T18:46:39.660Z,27.15
2019-06-27T18:49:10.289Z,27.07
2019-06-27T18:51:42.079Z,26.98
2019-06-27T18:54:13.004Z,26.90
2019-06-27T18:56:43.998Z,26.72
2019-06-27T18:59:14.731Z,26.79
2019-06-27T19:01:45.571Z,26.76
2019-06-27T19:04:16.239Z,26.86
2019-06-27T19:06:46.994Z,26.87
2019-06-27T19:09:17.753Z,26.54
2019-06-27T19:11:48.488Z,26.41
2019-06-27T19:14:19.467Z,26.39
2019-06-27T19:16:50.223Z,26.11
2019-06-27T19:19:23.572Z,25.90
2019-06-27T19:22:22.160Z,25.81
2019-06-27T19:25:07.874Z,25.78
2019-06-27T19:27:38.677Z,25.82
2019-06-27T19:30:09.522Z,25.54
2019-06-27T19:32:41.159Z,25.50
2019-06-27T19:35:12.164Z,25.44
2019-06-27T19:37:42.949Z,25.47
2019-06-27T19:40:13.919Z,25.40
2019-06-27T19:42:44.683Z,25.47
2019-06-27T19:45:15.498Z,25.55
2019-06-27T19:47:46.203Z,25.49
2019-06-27T19:50:17.414Z,25.40
2019-06-27T19:52:48.209Z,25.49
2019-06-27T19:55:19.481Z,25.26
2019-06-27T19:57:50.349Z,24.72
2019-06-27T20:00:21.552Z,24.43
2019-06-27T20:02:52.434Z,24.36
2019-06-27T20:05:23.140Z,24.42
2019-06-27T20:07:54.117Z,24.62
2019-06-27T20:10:25.146Z,24.42
2019-06-27T20:12:55.877Z,24.60
2019-06-27T20:15:26.650Z,24.24
2019-06-27T20:17:57.364Z,23.97
2019-06-27T20:20:28.305Z,23.90
2019-06-27T20:22:59.080Z,23.97
2019-06-27T20:25:29.891Z,24.17
2019-06-27T20:28:00.582Z,24.40
2019-06-27T20:30:31.340Z,24.09
2019-06-27T20:33:02.074Z,24.00
2019-06-27T20:35:33.027Z,24.20
2019-06-27T20:38:03.946Z,24.22
2019-06-27T20:40:34.686Z,24.23
2019-06-27T20:43:05.639Z,23.93
2019-06-27T20:45:36.631Z,24.14
2019-06-27T20:48:07.357Z,24.23
2019-06-27T20:50:38.096Z,23.98
2019-06-27T20:53:08.773Z,24.19
2019-06-27T20:55:39.592Z,24.21
2019-06-27T20:58:10.535Z,24.29
2019-06-27T21:00:41.535Z,24.00
2019-06-27T21:03:12.912Z,24.00
2019-06-27T21:05:43.758Z,24.30
2019-06-27T21:08:14.463Z,24.42
2019-06-27T21:10:45.543Z,24.33
2019-06-27T21:13:16.206Z,23.93
2019-06-27T21:15:50.243Z,23.88
2019-06-27T21:18:20.456Z,23.90
2019-06-27T21:20:51.232Z,23.89
2019-06-27T21:23:22.363Z,23.82
2019-06-27T21:25:53.557Z,24.15
2019-06-27T21:28:24.262Z,24.08
2019-06-27T21:30:54.979Z,23.92
2019-06-27T21:33:26.035Z,23.80
2019-06-27T21:35:56.941Z,23.59
2019-06-27T21:38:27.629Z,23.58
2019-06-27T21:40:58.469Z,23.13
2019-06-27T21:43:29.212Z,23.13
2019-06-27T21:46:00.008Z,22.93
2019-06-27T21:48:30.682Z,22.93
2019-06-27T21:51:01.421Z,22.71
2019-06-27T21:53:32.115Z,22.59
2019-06-27T21:56:02.834Z,22.52
2019-06-27T21:58:33.710Z,22.56
2019-06-27T22:02:41.570Z,22.09
2019-06-27T22:05:13.168Z,21.39
2019-06-27T22:07:44.025Z,21.26
2019-06-27T22:10:15.317Z,21.19
2019-06-27T22:12:46.503Z,21.61
2019-06-27T22:15:17.977Z,21.37
2019-06-27T22:17:48.701Z,21.37
2019-06-27T22:20:19.919Z,21.53
2019-06-27T22:22:50.715Z,21.57
2019-06-27T22:25:21.400Z,21.35
2019-06-27T22:27:52.341Z,21.06
2019-06-27T22:30:23.139Z,20.89
2019-06-27T22:32:53.913Z,21.04
2019-06-27T22:35:24.662Z,21.04
2019-06-27T22:38:13.077Z,21.28
2019-06-27T22:41:01.698Z,21.24
2019-06-27T22:43:49.995Z,21.22
2019-06-27T22:46:38.594Z,21.22
2019-06-27T22:49:08.957Z,21.04
2019-06-27T22:51:56.670Z,20.92
2019-06-27T22:54:27.654Z,20.77
2019-06-27T22:56:58.392Z,20.77
2019-06-27T22:59:29.449Z,20.57
2019-06-27T23:02:00.366Z,20.54
2019-06-27T23:04:31.277Z,20.36
2019-06-27T23:07:02.355Z,20.35
2019-06-27T23:09:33.108Z,20.26
2019-06-27T23:12:04.156Z,20.28
2019-06-27T23:14:35.527Z,20.28
2019-06-27T23:17:06.194Z,20.13
2019-06-27T23:19:36.923Z,19.79
2019-06-27T23:22:08.011Z,19.62
2019-06-27T23:24:38.947Z,19.62
2019-06-27T23:27:09.699Z,19.47
2019-06-27T23:29:40.486Z,19.53
2019-06-27T23:32:11.208Z,19.58
2019-06-27T23:34:41.994Z,19.93
2019-06-27T23:37:31.762Z,19.86
2019-06-27T23:40:13.591Z,19.86
2019-06-27T23:42:35.054Z,19.78
2019-06-27T23:45:06.328Z,19.75
2019-06-27T23:47:37.320Z,19.63
2019-06-27T23:50:09.685Z,19.64
2019-06-27T23:52:40.544Z,19.53
2019-06-27T23:55:12.687Z,19.57
2019-06-27T23:57:43.449Z,19.52
